Portada
METAR-TAF:

METAR-TAF

Aeroports :

Town MET

Windhoek, Namíbia

latitud: 22-34S, longitud: 017-06E, altitud: 1725 m

Observació

L'informe es va fer fa 1 hora i 11 minuts, a les 14:00 UTC
Vent 10 kt del Oest/Nord-Oest amb ràfegues de 20 kt
Temperatura 32°C
Humitat 14%
Pressió 1018 hPa

METAR: FYWW 221400Z AUTO 29010G20KT //// // ////// 32/01 Q1018

Hora: 17:11 (15:11 UTC)


TAF: manca

Observacions i pronòstics meteorològics de més de 4000 aeroports (METAR i TAF).

Les estacions disponibles són els punts grocs i vermells al mapa.

Posi el ratolí al punt desitjat per veure el nom de l'estació.

Feu clic per veure les observacions i els pronòstics meteorològics.

Per canviar el mapa: feu clic els botons verds amb una creu de color negre per apropar; al botó verd amb un guió per allunyar la imatge; o en les fletxes verdes per a mapes adjacents.


METAR-TAF: